Time;durP1;ratioP1;P1;durP2;ratioP2;P2;SDS_P1;SDS_P2;PMS_P1;PMS_P2;Temp;Humidity;BMP_temperature;BMP_pressure;BME280_temperature;BME280_humidity;BME280_pressure;Samples;Min_cycle;Max_cycle;Signal;HPM_P1;HPM_P2
2023/12/05 00:01:10;;;;;;;1.42;1.42;;;;;;;-3.91;77.17;96627.75;5055627;28;20095;-70
2023/12/05 00:03:37;;;;;;;1.35;1.35;;;;;;;-3.88;77.11;96628.31;5052418;28;20079;-70
2023/12/05 00:06:09;;;;;;;1.40;1.40;;;;;;;-3.91;77.64;96632.94;5045875;28;20049;-71
2023/12/05 00:08:37;;;;;;;1.63;1.63;;;;;;;-3.94;77.80;96630.59;5049391;28;20092;-70
2023/12/05 00:11:05;;;;;;;1.40;1.40;;;;;;;-3.91;77.86;96627.75;5047539;28;20049;-71
2023/12/05 00:13:34;;;;;;;1.58;1.58;;;;;;;-3.97;77.30;96623.06;5048191;28;20033;-70
2023/12/05 00:16:02;;;;;;;1.13;1.13;;;;;;;-3.98;77.66;96626.63;5052342;28;20049;-70
2023/12/05 00:18:29;;;;;;;1.77;1.77;;;;;;;-3.98;77.55;96624.00;5052737;28;20041;-70
2023/12/05 00:20:57;;;;;;;2.08;2.05;;;;;;;-3.99;77.60;96615.38;5051487;28;20049;-71
2023/12/05 00:23:25;;;;;;;1.35;1.35;;;;;;;-4.01;77.49;96612.06;5046819;28;20059;-70
2023/12/05 00:25:52;;;;;;;2.15;2.05;;;;;;;-4.06;77.55;96611.63;5040065;28;20513;-71
2023/12/05 00:28:20;;;;;;;1.35;1.35;;;;;;;-4.08;78.12;96610.94;5046751;28;20037;-71
2023/12/05 00:30:49;;;;;;;1.55;1.55;;;;;;;-4.03;78.06;96613.13;5053399;28;20044;-71
2023/12/05 00:33:16;;;;;;;1.75;1.67;;;;;;;-4.07;77.38;96621.22;5048737;28;20053;-71
2023/12/05 00:35:44;;;;;;;1.20;1.20;;;;;;;-4.07;77.80;96616.03;5052659;28;20052;-71
2023/12/05 00:38:12;;;;;;;0.70;0.70;;;;;;;-3.93;77.55;96616.63;5053572;28;20409;-71
2023/12/05 00:40:39;;;;;;;1.15;1.15;;;;;;;-4.04;77.74;96612.31;5046155;28;20037;-71
2023/12/05 00:43:07;;;;;;;1.70;1.70;;;;;;;-4.08;77.37;96606.56;5045393;28;20040;-71
2023/12/05 00:45:35;;;;;;;1.38;1.38;;;;;;;-4.06;77.85;96611.63;5048670;28;20041;-70
2023/12/05 00:48:04;;;;;;;1.63;1.63;;;;;;;-4.10;78.33;96597.22;5045993;28;20053;-70
2023/12/05 00:50:31;;;;;;;1.50;1.50;;;;;;;-4.04;77.20;96607.09;5048262;28;20386;-71
2023/12/05 00:53:07;;;;;;;1.52;1.52;;;;;;;-4.06;77.52;96619.47;5055580;28;20098;-70
2023/12/05 00:55:35;;;;;;;1.33;1.33;;;;;;;-4.03;77.90;96621.78;5052260;28;20131;-70
2023/12/05 00:58:03;;;;;;;1.20;1.20;;;;;;;-4.08;77.69;96616.16;5058814;28;20044;-71
2023/12/05 01:00:30;;;;;;;1.40;1.40;;;;;;;-4.07;77.16;96620.41;5051957;28;20141;-70
2023/12/05 01:02:58;;;;;;;0.45;0.45;;;;;;;-4.10;77.43;96634.50;5049409;28;20406;-72
2023/12/05 01:05:27;;;;;;;0.90;0.90;;;;;;;-4.07;77.75;96629.03;5053957;28;20520;-69
2023/12/05 01:07:56;;;;;;;1.30;1.30;;;;;;;-4.02;78.11;96631.25;5049195;28;20063;-72
2023/12/05 01:10:24;;;;;;;1.52;1.52;;;;;;;-3.98;77.68;96626.63;5052112;28;20405;-70
2023/12/05 01:12:51;;;;;;;1.15;1.15;;;;;;;-3.94;77.40;96628.00;5053723;28;20041;-70
2023/12/05 01:15:19;;;;;;;1.23;1.23;;;;;;;-4.02;77.57;96628.66;5049274;28;20128;-72
2023/12/05 01:17:47;;;;;;;1.25;1.25;;;;;;;-4.00;77.16;96625.91;5050360;28;20110;-72
2023/12/05 01:20:14;;;;;;;2.33;2.22;;;;;;;-4.02;77.35;96612.19;5051400;28;20049;-70
2023/12/05 01:22:43;;;;;;;1.15;1.15;;;;;;;-4.01;77.24;96621.66;5051604;28;20047;-71
2023/12/05 01:25:11;;;;;;;1.13;1.13;;;;;;;-4.04;76.90;96617.53;5058965;28;20120;-71
2023/12/05 01:27:38;;;;;;;1.55;1.55;;;;;;;-4.06;77.45;96616.84;5049101;28;20079;-73
2023/12/05 01:30:08;;;;;;;1.13;1.13;;;;;;;-4.08;77.58;96613.53;5048406;28;20131;-71
2023/12/05 01:32:35;;;;;;;1.40;1.40;;;;;;;-4.07;77.25;96621.22;5049343;28;20128;-70
2023/12/05 01:35:03;;;;;;;1.38;1.38;;;;;;;-4.10;77.51;96621.47;5050888;28;20049;-70
2023/12/05 01:37:31;;;;;;;1.40;1.40;;;;;;;-4.10;77.19;96600.63;5050500;28;20502;-72
2023/12/05 01:39:59;;;;;;;1.60;1.60;;;;;;;-4.16;77.54;96614.19;5053030;28;20045;-70
2023/12/05 01:42:27;;;;;;;1.27;1.27;;;;;;;-4.17;77.26;96609.94;5040626;28;20052;-72
2023/12/05 01:44:55;;;;;;;1.55;1.55;;;;;;;-4.17;77.62;96619.53;5051591;28;20048;-70
2023/12/05 01:47:23;;;;;;;1.30;1.30;;;;;;;-4.23;77.61;96607.00;5045473;28;20135;-72
2023/12/05 01:49:51;;;;;;;1.52;1.52;;;;;;;-4.23;78.00;96620.84;5052978;28;20045;-70
2023/12/05 01:52:18;;;;;;;2.40;2.30;;;;;;;-4.21;77.22;96620.72;5048319;28;20044;-70
2023/12/05 01:54:46;;;;;;;1.48;1.48;;;;;;;-4.23;78.01;96623.44;5047270;28;20041;-72
2023/12/05 01:57:16;;;;;;;1.55;1.55;;;;;;;-4.22;77.45;96622.50;5050646;28;20120;-72
2023/12/05 01:59:44;;;;;;;1.20;1.20;;;;;;;-4.25;78.31;96614.09;5056650;28;20051;-70
2023/12/05 02:02:11;;;;;;;1.17;1.17;;;;;;;-4.23;77.92;96607.00;5053979;28;20036;-70
2023/12/05 02:04:39;;;;;;;1.17;1.17;;;;;;;-4.18;77.75;96613.50;5048413;28;20063;-70
2023/12/05 02:07:07;;;;;;;1.55;1.55;;;;;;;-4.18;77.47;96610.06;5047089;28;20048;-69
2023/12/05 02:09:37;;;;;;;1.25;1.25;;;;;;;-4.16;77.68;96610.75;5051007;28;20052;-72
2023/12/05 02:12:05;;;;;;;1.67;1.67;;;;;;;-4.15;77.70;96600.19;5053677;28;20130;-69
2023/12/05 02:14:35;;;;;;;2.40;2.33;;;;;;;-4.18;78.12;96599.63;5046738;28;20493;-69
2023/12/05 02:17:08;;;;;;;1.55;1.55;;;;;;;-4.20;77.59;96594.56;5050590;28;20501;-69
2023/12/05 02:19:45;;;;;;;0.88;0.88;;;;;;;-4.23;78.18;96592.19;5047481;28;20044;-69
2023/12/05 02:22:22;;;;;;;1.42;1.42;;;;;;;-4.22;78.43;96587.81;5044761;28;20593;-72
2023/12/05 02:24:57;;;;;;;1.63;1.63;;;;;;;-4.21;78.26;96587.69;5047385;28;20041;-73
2023/12/05 02:27:35;;;;;;;1.23;1.23;;;;;;;-4.16;78.43;96580.34;5045315;28;20493;-70
2023/12/05 02:30:04;;;;;;;1.23;1.23;;;;;;;-4.12;78.60;96576.50;5045391;28;20060;-69
2023/12/05 02:32:31;;;;;;;1.73;1.73;;;;;;;-4.10;78.90;96584.19;5048308;28;20052;-70
2023/12/05 02:34:59;;;;;;;1.42;1.42;;;;;;;-4.09;78.63;96583.22;5047942;28;20049;-70
2023/12/05 02:37:31;;;;;;;1.45;1.45;;;;;;;-4.05;78.70;96578.59;5046602;28;20045;-72
2023/12/05 02:40:07;;;;;;;1.48;1.48;;;;;;;-4.10;78.77;96590.22;5044961;28;20076;-69
2023/12/05 02:42:37;;;;;;;1.23;1.23;;;;;;;-4.14;79.10;96574.97;5054108;28;20048;-72
2023/12/05 02:45:08;;;;;;;1.13;1.13;;;;;;;-4.14;79.87;96575.78;5049290;28;20045;-71
2023/12/05 02:47:37;;;;;;;2.83;2.72;;;;;;;-4.10;80.78;96574.59;5057863;28;20106;-69
2023/12/05 02:50:05;;;;;;;1.20;1.20;;;;;;;-4.14;80.52;96573.19;5055220;28;20103;-71
2023/12/05 02:52:34;;;;;;;1.40;1.40;;;;;;;-4.12;81.03;96555.66;5045817;28;20449;-70
2023/12/05 02:55:01;;;;;;;1.58;1.58;;;;;;;-4.12;81.07;96578.28;5047032;28;20045;-71
2023/12/05 02:57:29;;;;;;;1.00;1.00;;;;;;;-4.14;81.09;96572.38;5046817;28;20064;-70
2023/12/05 02:59:58;;;;;;;1.23;1.23;;;;;;;-4.12;81.98;96571.28;5037245;28;20072;-70
2023/12/05 03:02:26;;;;;;;1.35;1.35;;;;;;;-4.13;81.59;96580.06;5050173;28;20041;-70
2023/12/05 03:04:54;;;;;;;1.63;1.63;;;;;;;-4.05;81.18;96581.22;5045506;28;20520;-71
2023/12/05 03:07:21;;;;;;;2.33;2.22;;;;;;;-4.07;81.11;96574.34;5060014;28;20508;-71
2023/12/05 03:09:49;;;;;;;1.20;1.20;;;;;;;-4.05;81.01;96573.38;5050652;28;20056;-70
2023/12/05 03:12:17;;;;;;;1.25;1.25;;;;;;;-4.02;80.82;96570.50;5051166;28;20045;-71
2023/12/05 03:14:44;;;;;;;1.40;1.40;;;;;;;-4.01;81.42;96578.19;5054752;28;20042;-70
2023/12/05 03:17:13;;;;;;;0.60;0.60;;;;;;;-3.97;81.22;96565.75;5040531;28;20410;-71
2023/12/05 03:19:41;;;;;;;1.35;1.35;;;;;;;-3.97;80.72;96563.13;5049359;28;20063;-71
2023/12/05 03:22:09;;;;;;;1.65;1.65;;;;;;;-3.93;81.07;96572.31;5046953;28;20077;-71
2023/12/05 03:24:36;;;;;;;1.10;1.10;;;;;;;-3.95;80.94;96566.44;5053528;28;20060;-71
2023/12/05 03:27:04;;;;;;;0.50;0.50;;;;;;;-3.94;80.34;96555.03;5045493;28;20453;-71
2023/12/05 03:29:32;;;;;;;1.20;1.20;;;;;;;-3.95;80.95;96562.06;5055079;28;20119;-70
2023/12/05 03:31:59;;;;;;;1.00;1.00;;;;;;;-3.93;80.66;96556.69;5053871;28;20051;-70
2023/12/05 03:34:28;;;;;;;1.15;1.15;;;;;;;-3.89;79.90;96563.31;5051849;28;20051;-71
2023/12/05 03:36:56;;;;;;;1.40;1.40;;;;;;;-3.88;80.23;96571.00;5054968;28;20054;-70
2023/12/05 03:39:24;;;;;;;1.75;1.75;;;;;;;-3.90;79.81;96570.28;5048716;28;20053;-70
2023/12/05 03:41:51;;;;;;;1.52;1.52;;;;;;;-3.88;79.95;96557.13;5052962;28;20104;-71
2023/12/05 03:44:19;;;;;;;1.15;1.15;;;;;;;-3.85;80.18;96562.09;5046404;28;20491;-71
2023/12/05 03:46:47;;;;;;;1.25;1.25;;;;;;;-3.83;79.90;96557.56;5054030;28;20048;-70
2023/12/05 03:49:14;;;;;;;1.17;1.17;;;;;;;-3.80;79.90;96560.72;5048855;28;20055;-70
2023/12/05 03:51:44;;;;;;;1.38;1.38;;;;;;;-3.79;80.02;96554.56;5049987;28;20154;-70
2023/12/05 03:54:11;;;;;;;1.38;1.38;;;;;;;-3.78;79.81;96563.22;5052484;28;20077;-70
2023/12/05 03:56:39;;;;;;;1.48;1.48;;;;;;;-3.78;79.95;96547.56;5051650;28;20045;-70
2023/12/05 03:59:06;;;;;;;1.10;1.10;;;;;;;-3.73;79.57;96546.19;5052844;28;20052;-70
2023/12/05 04:01:34;;;;;;;1.23;1.23;;;;;;;-3.66;79.51;96558.72;5054104;28;20131;-70
2023/12/05 04:04:01;;;;;;;1.40;1.40;;;;;;;-3.66;79.85;96551.72;5052798;28;20561;-70
2023/12/05 04:06:29;;;;;;;1.52;1.52;;;;;;;-3.63;79.54;96559.25;5054779;28;20046;-70
2023/12/05 04:08:58;;;;;;;1.27;1.27;;;;;;;-3.62;79.76;96553.09;5059556;28;20055;-69
2023/12/05 04:11:30;;;;;;;0.70;0.70;;;;;;;-3.62;79.93;96557.47;5059925;28;21102;-70
2023/12/05 04:13:58;;;;;;;1.10;1.10;;;;;;;-3.61;79.87;96543.50;5052774;28;20049;-70
2023/12/05 04:16:26;;;;;;;1.58;1.58;;;;;;;-3.52;80.27;96550.50;5051712;28;20049;-71
2023/12/05 04:18:54;;;;;;;1.30;1.30;;;;;;;-3.52;80.34;96545.28;5052355;28;20056;-70
2023/12/05 04:21:22;;;;;;;1.30;1.30;;;;;;;-3.55;80.02;96546.41;5050045;28;20524;-71
2023/12/05 04:23:49;;;;;;;1.10;1.10;;;;;;;-3.52;80.14;96548.72;5048106;28;20392;-70
2023/12/05 04:26:19;;;;;;;0.50;0.50;;;;;;;-3.50;80.38;96540.78;5046373;28;20402;-70
2023/12/05 04:28:47;;;;;;;1.45;1.45;;;;;;;-3.50;80.34;96539.00;5048250;28;20044;-70
2023/12/05 04:31:15;;;;;;;0.77;0.77;;;;;;;-3.52;80.38;96527.88;5049354;28;20458;-70
2023/12/05 04:33:43;;;;;;;0.30;0.30;;;;;;;-3.48;80.51;96528.44;5051533;28;20668;-71
2023/12/05 04:36:12;;;;;;;1.52;1.52;;;;;;;-3.47;80.96;96525.69;5048193;28;20056;-70
2023/12/05 04:38:39;;;;;;;1.27;1.27;;;;;;;-3.46;80.93;96529.13;5057164;28;20045;-70
2023/12/05 04:41:07;;;;;;;1.42;1.42;;;;;;;-3.48;80.79;96544.91;5044588;28;20049;-71
2023/12/05 04:43:36;;;;;;;1.23;1.23;;;;;;;-3.44;80.76;96529.81;5048547;28;20542;-71
2023/12/05 04:46:05;;;;;;;1.67;1.67;;;;;;;-3.43;80.42;96540.13;5054900;28;20044;-71
2023/12/05 04:48:32;;;;;;;1.40;1.40;;;;;;;-3.48;80.74;96539.69;5050551;28;20044;-71
2023/12/05 04:51:00;;;;;;;1.20;1.20;;;;;;;-3.48;80.69;96537.09;5052605;28;20118;-70
2023/12/05 04:53:28;;;;;;;0.93;0.93;;;;;;;-3.49;81.15;96537.22;5049285;28;20120;-70
2023/12/05 04:55:55;;;;;;;1.33;1.33;;;;;;;-3.51;81.00;96532.13;5050799;28;20076;-70
2023/12/05 04:58:23;;;;;;;1.40;1.40;;;;;;;-3.51;81.19;96539.94;5047350;28;20059;-70
2023/12/05 05:00:52;;;;;;;1.05;1.05;;;;;;;-3.51;81.33;96545.16;5050195;28;20040;-70
2023/12/05 05:03:23;;;;;;;1.30;1.30;;;;;;;-3.47;81.27;96540.50;5038523;28;20123;-70
2023/12/05 05:05:51;;;;;;;1.52;1.52;;;;;;;-3.47;81.38;96532.69;5049663;28;20043;-70
2023/12/05 05:08:18;;;;;;;1.38;1.38;;;;;;;-3.42;80.58;96541.75;5049206;28;20490;-70
2023/12/05 05:10:46;;;;;;;1.55;1.55;;;;;;;-3.47;80.89;96543.13;5049754;28;20454;-70
2023/12/05 05:13:14;;;;;;;0.65;0.65;;;;;;;-3.47;81.17;96525.69;5045518;28;20459;-70
2023/12/05 05:15:42;;;;;;;1.25;1.25;;;;;;;-3.46;81.19;96524.75;5055600;28;20044;-70
2023/12/05 05:18:11;;;;;;;1.30;1.30;;;;;;;-3.44;81.55;96538.47;5052547;28;20049;-71
2023/12/05 05:20:38;;;;;;;1.40;1.40;;;;;;;-3.41;81.26;96534.75;5045128;28;20045;-70
2023/12/05 05:23:06;;;;;;;2.10;2.00;;;;;;;-3.39;81.94;96525.84;5051338;28;20047;-70
2023/12/05 05:25:34;;;;;;;1.42;1.42;;;;;;;-3.36;81.60;96541.22;5055031;28;20036;-71
2023/12/05 05:28:02;;;;;;;1.45;1.45;;;;;;;-3.34;82.06;96541.91;5053454;28;20079;-70
2023/12/05 05:30:30;;;;;;;0.40;0.40;;;;;;;-3.41;82.85;96553.00;5048375;28;20436;-70
2023/12/05 05:32:57;;;;;;;1.23;1.23;;;;;;;-3.46;82.56;96535.16;5049028;28;20033;-69
2023/12/05 05:35:26;;;;;;;1.65;1.65;;;;;;;-3.48;83.26;96536.25;5049594;28;20055;-70
2023/12/05 05:37:54;;;;;;;0.95;0.95;;;;;;;-3.44;83.00;96541.09;5045271;28;20052;-70
2023/12/05 05:40:21;;;;;;;1.45;1.45;;;;;;;-3.38;82.73;96539.72;5044031;28;20067;-70
2023/12/05 05:42:49;;;;;;;1.45;1.45;;;;;;;-3.39;82.78;96544.09;5050263;28;20048;-69
2023/12/05 05:45:17;;;;;;;0.73;0.73;;;;;;;-3.35;82.50;96558.53;5050599;28;20457;-69
2023/12/05 05:47:44;;;;;;;0.68;0.68;;;;;;;-3.38;83.60;96548.34;5045006;28;20489;-71
2023/12/05 05:50:14;;;;;;;0.98;0.98;;;;;;;-3.41;84.75;96553.81;5049849;28;20517;-69
2023/12/05 05:52:47;;;;;;;1.20;1.20;;;;;;;-3.50;86.35;96549.41;5049529;28;20049;-69
2023/12/05 05:55:14;;;;;;;1.48;1.48;;;;;;;-3.54;87.20;96558.50;5031955;28;20137;-70
2023/12/05 05:57:42;;;;;;;0.40;0.40;;;;;;;-3.50;85.37;96546.81;5052234;28;20472;-70
2023/12/05 06:00:11;;;;;;;1.23;1.23;;;;;;;-3.49;85.34;96545.03;5049942;28;20032;-70
2023/12/05 06:02:39;;;;;;;1.20;1.20;;;;;;;-3.46;85.49;96545.59;5053997;28;20120;-70
2023/12/05 06:05:07;;;;;;;1.33;1.33;;;;;;;-3.42;85.29;96548.75;5049779;28;20041;-70
2023/12/05 06:07:35;;;;;;;0.52;0.52;;;;;;;-3.36;85.15;96540.41;5056070;28;20426;-71
2023/12/05 06:10:04;;;;;;;1.27;1.27;;;;;;;-3.36;85.51;96537.78;5045007;28;20106;-69
2023/12/05 06:12:33;;;;;;;1.20;1.20;;;;;;;-3.32;85.33;96562.63;5051318;28;20282;-69
2023/12/05 06:15:01;;;;;;;1.15;1.15;;;;;;;-3.34;85.51;96554.97;5051391;28;20041;-72
2023/12/05 06:17:28;;;;;;;1.55;1.55;;;;;;;-3.30;85.39;96558.09;5049889;28;20041;-70
2023/12/05 06:19:56;;;;;;;1.80;1.80;;;;;;;-3.28;85.22;96555.38;5052230;28;20044;-70
2023/12/05 06:22:24;;;;;;;1.38;1.38;;;;;;;-3.25;85.36;96560.31;5050688;28;20124;-70
2023/12/05 06:24:52;;;;;;;1.15;1.15;;;;;;;-3.25;84.77;96561.16;5050343;28;20047;-70
2023/12/05 06:27:21;;;;;;;0.32;0.32;;;;;;;-3.24;84.98;96557.59;5050777;28;20429;-70
2023/12/05 06:29:48;;;;;;;1.13;1.13;;;;;;;-3.21;84.89;96559.06;5046620;28;20044;-70
2023/12/05 06:32:16;;;;;;;1.23;1.23;;;;;;;-3.22;84.99;96558.28;5044365;28;20490;-70
2023/12/05 06:34:43;;;;;;;1.25;1.25;;;;;;;-3.20;84.57;96553.72;5047672;28;20041;-70
2023/12/05 06:37:11;;;;;;;1.65;1.65;;;;;;;-3.20;85.40;96558.94;5045857;28;20046;-69
2023/12/05 06:39:39;;;;;;;1.27;1.27;;;;;;;-3.17;85.20;96563.91;5048920;28;20036;-70
2023/12/05 06:42:06;;;;;;;1.48;1.48;;;;;;;-3.11;84.75;96565.94;5052244;28;20049;-72
2023/12/05 06:44:35;;;;;;;1.33;1.33;;;;;;;-3.11;84.77;96567.72;5050664;28;20042;-72
2023/12/05 06:47:03;;;;;;;0.60;0.60;;;;;;;-3.12;85.33;96569.53;5059940;28;20481;-71
2023/12/05 06:49:31;;;;;;;1.67;1.67;;;;;;;-3.10;85.23;96561.56;5053980;28;20045;-71
2023/12/05 06:52:00;;;;;;;1.40;1.40;;;;;;;-3.08;85.43;96555.25;5050801;28;20371;-72
2023/12/05 06:54:28;;;;;;;1.55;1.55;;;;;;;-3.09;85.57;96550.16;5043005;28;20029;-72
2023/12/05 06:56:55;;;;;;;1.30;1.30;;;;;;;-3.03;84.97;96560.06;5051435;28;20091;-69
2023/12/05 06:59:23;;;;;;;0.43;0.43;;;;;;;-3.00;85.19;96563.22;5043860;28;20474;-70
2023/12/05 07:01:52;;;;;;;0.40;0.40;;;;;;;-2.94;84.29;96564.47;5049284;28;20401;-70
2023/12/05 07:04:19;;;;;;;1.42;1.42;;;;;;;-2.91;84.12;96552.94;5049308;28;20037;-70
2023/12/05 07:06:47;;;;;;;1.38;1.38;;;;;;;-2.94;84.24;96559.25;5031823;28;20505;-70
2023/12/05 07:09:15;;;;;;;1.10;1.10;;;;;;;-2.96;83.75;96562.00;5046661;28;20095;-70
2023/12/05 07:11:43;;;;;;;1.35;1.35;;;;;;;-2.88;83.61;96574.34;5049803;28;20050;-70
2023/12/05 07:14:13;;;;;;;1.50;1.50;;;;;;;-2.88;83.98;96573.53;5047848;28;20124;-70
2023/12/05 07:16:40;;;;;;;1.30;1.30;;;;;;;-2.93;83.59;96570.50;5053743;28;20334;-70
2023/12/05 07:19:09;;;;;;;1.17;1.17;;;;;;;-2.93;83.87;96571.34;5053723;28;20049;-72
2023/12/05 07:21:37;;;;;;;1.08;1.08;;;;;;;-2.89;83.92;96585.75;5045607;28;20045;-72
2023/12/05 07:24:05;;;;;;;1.08;1.08;;;;;;;-2.89;83.95;96598.78;5053869;28;20057;-72
2023/12/05 07:26:33;;;;;;;1.73;1.73;;;;;;;-2.88;83.60;96586.56;5045409;28;20041;-70
2023/12/05 07:29:01;;;;;;;1.38;1.38;;;;;;;-2.86;83.46;96590.72;5053545;28;20044;-69
2023/12/05 07:31:28;;;;;;;1.52;1.52;;;;;;;-2.87;82.81;96589.06;5047446;28;20041;-69
2023/12/05 07:33:57;;;;;;;1.33;1.33;;;;;;;-2.88;83.81;96597.84;5051582;28;20072;-69
2023/12/05 07:36:26;;;;;;;1.25;1.25;;;;;;;-2.80;83.12;96592.75;5054198;28;20044;-69
2023/12/05 07:38:53;;;;;;;0.40;0.40;;;;;;;-2.79;83.62;96596.19;5045936;28;20461;-69
2023/12/05 07:41:22;;;;;;;1.30;1.30;;;;;;;-2.79;82.78;96597.00;5054094;28;20136;-69
2023/12/05 07:43:50;;;;;;;1.25;1.25;;;;;;;-2.71;83.14;96601.56;5054161;28;20149;-72
2023/12/05 07:46:18;;;;;;;1.27;1.17;;;;;;;-2.72;82.80;96605.97;5060814;28;20075;-72
2023/12/05 07:48:46;;;;;;;1.38;1.38;;;;;;;-2.67;82.94;96613.38;5057359;28;20041;-72
2023/12/05 07:51:15;;;;;;;1.55;1.55;;;;;;;-2.63;82.81;96599.91;5054925;28;20044;-70
2023/12/05 07:53:45;;;;;;;1.50;1.50;;;;;;;-2.58;82.06;96609.94;5052927;28;20072;-72
2023/12/05 07:56:12;;;;;;;0.40;0.40;;;;;;;-2.60;82.07;96602.25;5058414;28;20448;-71
2023/12/05 07:58:40;;;;;;;1.42;1.42;;;;;;;-2.58;82.34;96605.53;5059528;28;20048;-72
2023/12/05 08:01:08;;;;;;;0.80;0.80;;;;;;;-2.52;82.24;96606.78;5050118;28;20041;-73
2023/12/05 08:03:36;;;;;;;1.02;1.02;;;;;;;-2.50;82.49;96612.69;5049584;28;20124;-72
2023/12/05 08:06:04;;;;;;;0.98;0.98;;;;;;;-2.50;82.39;96607.47;5051477;28;20041;-72
2023/12/05 08:08:34;;;;;;;1.30;1.30;;;;;;;-2.46;81.94;96614.06;5053722;28;20036;-73
2023/12/05 08:11:03;;;;;;;1.15;1.15;;;;;;;-2.48;81.92;96608.16;5052778;28;20120;-72
2023/12/05 08:13:31;;;;;;;1.05;1.05;;;;;;;-2.44;82.17;96612.13;5052999;28;20041;-70
2023/12/05 08:15:59;;;;;;;1.38;1.38;;;;;;;-2.36;81.84;96619.28;5052851;28;20053;-70
2023/12/05 08:18:26;;;;;;;2.17;2.13;;;;;;;-2.35;82.01;96621.75;5049805;28;20049;-70
2023/12/05 08:20:54;;;;;;;1.10;1.10;;;;;;;-2.31;81.73;96624.91;5053200;28;20502;-72
2023/12/05 08:23:22;;;;;;;1.17;1.17;;;;;;;-2.33;81.97;96617.22;5048972;28;20053;-69
2023/12/05 08:25:49;;;;;;;1.50;1.50;;;;;;;-2.30;82.14;96621.34;5046840;28;20041;-70
2023/12/05 08:28:18;;;;;;;0.95;0.95;;;;;;;-2.34;81.76;96622.56;5050491;28;20037;-70
2023/12/05 08:30:46;;;;;;;1.50;1.50;;;;;;;-2.33;82.12;96616.38;5052402;28;20446;-70
2023/12/05 08:33:14;;;;;;;1.45;1.45;;;;;;;-2.33;81.86;96625.06;5052230;28;20043;-72
2023/12/05 08:35:42;;;;;;;1.00;1.00;;;;;;;-2.30;81.67;96621.34;5049342;28;20036;-72
2023/12/05 08:38:09;;;;;;;0.98;0.98;;;;;;;-2.28;82.04;96616.78;5052246;28;20041;-72
2023/12/05 08:40:37;;;;;;;1.65;1.65;;;;;;;-2.28;81.97;96628.06;5047282;28;20042;-73
2023/12/05 08:43:05;;;;;;;1.13;1.13;;;;;;;-2.20;82.02;96631.78;5045264;28;20049;-73
2023/12/05 08:45:34;;;;;;;0.40;0.40;;;;;;;-2.22;82.22;96613.63;5049485;28;20455;-72
2023/12/05 08:48:01;;;;;;;1.33;1.33;;;;;;;-2.15;82.65;96630.38;5045780;28;20094;-72
2023/12/05 08:50:29;;;;;;;1.00;1.00;;;;;;;-2.10;82.44;96629.97;5052772;28;20106;-72
2023/12/05 08:52:57;;;;;;;1.27;1.27;;;;;;;-2.03;82.58;96623.22;5047002;28;20053;-72
2023/12/05 08:55:24;;;;;;;2.13;2.08;;;;;;;-1.95;82.35;96623.31;5045785;28;20056;-72
2023/12/05 08:57:53;;;;;;;1.25;1.25;;;;;;;-1.88;82.49;96635.72;5051163;28;20051;-69
2023/12/05 09:00:21;;;;;;;1.42;1.42;;;;;;;-1.74;82.37;96634.41;5046911;28;20048;-73
2023/12/05 09:02:50;;;;;;;2.20;2.10;;;;;;;-1.56;82.32;96631.91;5045815;28;20037;-72
2023/12/05 09:05:18;;;;;;;1.40;1.40;;;;;;;-1.49;81.71;96630.34;5050177;28;20486;-72
2023/12/05 09:07:45;;;;;;;1.58;1.58;;;;;;;-1.50;82.14;96624.28;5054231;28;20119;-71
2023/12/05 09:10:17;;;;;;;1.35;1.35;;;;;;;-1.48;81.81;96621.53;5060622;28;20103;-70
2023/12/05 09:12:44;;;;;;;1.20;1.20;;;;;;;-1.43;81.44;96626.31;5053530;28;20040;-72
2023/12/05 09:15:12;;;;;;;1.08;1.08;;;;;;;-1.36;81.42;96632.63;5052876;28;20159;-70
2023/12/05 09:17:39;;;;;;;1.33;1.33;;;;;;;-1.36;81.25;96633.47;5048854;28;20063;-73
2023/12/05 09:20:10;;;;;;;1.27;1.27;;;;;;;-1.29;81.61;96629.28;5043846;28;20053;-72
2023/12/05 09:22:37;;;;;;;1.80;1.80;;;;;;;-1.17;81.61;96633.38;5048920;28;20037;-70
2023/12/05 09:25:07;;;;;;;1.55;1.55;;;;;;;-1.11;81.31;96632.78;5051049;28;20047;-72
2023/12/05 09:27:35;;;;;;;1.38;1.38;;;;;;;-1.06;80.80;96644.59;5049548;28;20056;-69
2023/12/05 09:30:03;;;;;;;1.00;1.00;;;;;;;-1.11;80.88;96648.47;5048647;28;20048;-71
2023/12/05 09:32:30;;;;;;;1.75;1.75;;;;;;;-1.04;80.38;96642.69;5043878;28;20045;-69
2023/12/05 09:34:58;;;;;;;1.70;1.70;;;;;;;-1.01;80.65;96643.19;5052955;28;20044;-72
2023/12/05 09:37:27;;;;;;;1.25;1.25;;;;;;;-0.91;80.74;96649.19;5055820;28;20126;-69
2023/12/05 09:39:55;;;;;;;1.10;1.10;;;;;;;-0.98;79.99;96652.53;5051433;28;20493;-69
2023/12/05 09:42:25;;;;;;;0.70;0.70;;;;;;;-1.09;80.24;96652.75;5042324;28;20893;-72
2023/12/05 09:44:53;;;;;;;1.10;1.10;;;;;;;-1.17;80.68;96650.88;5049416;28;20045;-72
2023/12/05 09:47:21;;;;;;;1.00;1.00;;;;;;;-1.15;80.64;96657.59;5046513;28;20041;-71
2023/12/05 09:49:49;;;;;;;1.48;1.48;;;;;;;-1.13;80.50;96655.66;5049586;28;20040;-71
2023/12/05 09:52:18;;;;;;;0.80;0.80;;;;;;;-1.04;80.32;96658.38;5048075;28;20045;-71
2023/12/05 09:54:48;;;;;;;1.50;1.50;;;;;;;-1.13;79.91;96649.59;5048472;28;20045;-71
2023/12/05 09:57:16;;;;;;;1.33;1.33;;;;;;;-1.21;80.21;96639.84;5051592;28;20041;-71
2023/12/05 09:59:44;;;;;;;1.67;1.67;;;;;;;-1.26;80.55;96628.19;5050573;28;20029;-71
2023/12/05 10:02:15;;;;;;;1.23;1.23;;;;;;;-1.35;81.16;96637.69;5050367;28;20045;-72
2023/12/05 10:04:44;;;;;;;1.23;1.23;;;;;;;-1.40;81.90;96634.72;5047422;28;20123;-72
2023/12/05 10:07:14;;;;;;;1.15;1.15;;;;;;;-1.38;82.82;96651.09;5050755;28;20041;-72
2023/12/05 10:09:43;;;;;;;1.25;1.25;;;;;;;-1.35;83.17;96637.69;5050540;28;20083;-72
2023/12/05 10:12:12;;;;;;;1.42;1.42;;;;;;;-1.27;83.30;96648.28;5050732;28;20037;-73
2023/12/05 10:14:41;;;;;;;1.70;1.70;;;;;;;-1.18;83.74;96633.50;5050655;28;20072;-73
2023/12/05 10:17:09;;;;;;;1.38;1.38;;;;;;;-1.12;82.94;96633.75;5051024;28;20116;-72
2023/12/05 10:19:37;;;;;;;0.43;0.43;;;;;;;-1.03;82.77;96641.69;5050884;28;20421;-71
2023/12/05 10:22:05;;;;;;;1.15;1.15;;;;;;;-0.96;82.77;96633.09;5050627;28;20098;-71
2023/12/05 10:24:39;;;;;;;1.23;1.23;;;;;;;-0.95;82.61;96629.53;5046630;28;20379;-70
2023/12/05 10:27:07;;;;;;;1.13;1.13;;;;;;;-0.86;82.67;96626.00;5053841;28;20041;-70
2023/12/05 10:29:39;;;;;;;1.33;1.33;;;;;;;-0.85;82.71;96635.53;5050897;28;20068;-70
2023/12/05 10:32:07;;;;;;;1.00;1.00;;;;;;;-0.89;82.50;96623.69;5050523;28;20052;-70
2023/12/05 10:34:48;;;;;;;1.80;1.80;;;;;;;-0.79;82.50;96636.72;5050825;28;20060;-71
2023/12/05 10:37:20;;;;;;;1.60;1.60;;;;;;;-0.82;82.72;96635.19;5044136;28;20043;-70
2023/12/05 10:39:49;;;;;;;1.50;1.50;;;;;;;-0.86;83.06;96636.50;5050012;28;20123;-70
2023/12/05 10:42:17;;;;;;;1.35;1.35;;;;;;;-0.76;82.73;96634.63;5050313;28;20123;-71
2023/12/05 10:44:47;;;;;;;1.58;1.58;;;;;;;-0.68;82.89;96628.63;5048260;28;20497;-70
2023/12/05 10:47:14;;;;;;;1.52;1.52;;;;;;;-0.63;82.82;96633.44;5050273;28;20041;-70
2023/12/05 10:49:48;;;;;;;1.33;1.33;;;;;;;-0.62;83.09;96632.47;5050662;28;20041;-70
2023/12/05 10:52:16;;;;;;;1.85;1.83;;;;;;;-0.66;83.45;96625.88;5047479;28;20079;-71
2023/12/05 10:54:44;;;;;;;1.08;1.08;;;;;;;-0.70;84.12;96614.03;5047577;28;20055;-71
2023/12/05 10:57:12;;;;;;;1.35;1.35;;;;;;;-0.79;84.80;96626.22;5048834;28;20075;-71
2023/12/05 10:59:40;;;;;;;1.50;1.50;;;;;;;-0.77;85.11;96613.81;5046533;28;20048;-70
2023/12/05 11:02:13;;;;;;;1.55;1.55;;;;;;;-0.73;84.31;96600.25;5050296;28;20040;-71
2023/12/05 11:04:41;;;;;;;1.17;1.17;;;;;;;-0.69;83.78;96608.66;5046373;28;20498;-70
2023/12/05 11:07:09;;;;;;;1.25;1.25;;;;;;;-0.61;83.69;96603.47;5026906;28;20069;-71
2023/12/05 11:09:37;;;;;;;1.30;1.30;;;;;;;-0.43;83.45;96600.88;5048797;28;20069;-70
2023/12/05 11:12:06;;;;;;;1.00;1.00;;;;;;;-0.29;82.87;96610.81;5044726;28;20076;-70
2023/12/05 11:14:34;;;;;;;1.38;1.38;;;;;;;-0.33;82.02;96600.78;5042486;28;20043;-71
2023/12/05 11:17:04;;;;;;;1.17;1.17;;;;;;;-0.33;81.95;96606.03;5049550;28;20041;-70
2023/12/05 11:19:43;;;;;;;1.23;1.23;;;;;;;-0.46;81.37;96585.44;5050409;28;20053;-70
2023/12/05 11:22:11;;;;;;;;;;;;;;;-0.42;82.00;96589.41;5042885;28;20525;-71
2023/12/05 11:24:57;;;;;;;1.45;1.45;;;;;;;-0.42;81.64;96605.97;5050219;28;19931;-70
2023/12/05 11:27:36;;;;;;;1.35;1.35;;;;;;;-0.38;81.45;96598.59;5044826;28;20091;-70
2023/12/05 11:30:13;;;;;;;1.35;1.35;;;;;;;-0.34;81.92;96597.34;5045192;28;20049;-70
2023/12/05 11:32:45;;;;;;;1.40;1.40;;;;;;;-0.26;81.50;96599.19;5053951;28;20501;-70
2023/12/05 11:35:19;;;;;;;1.17;1.17;;;;;;;-0.22;81.29;96600.56;5048929;28;20045;-70
2023/12/05 11:38:05;;;;;;;1.27;1.27;;;;;;;-0.06;80.67;96596.22;5053819;28;20051;-70
2023/12/05 11:40:33;;;;;;;1.08;1.08;;;;;;;0.17;80.08;96587.84;5050899;28;20044;-70